| Place | Name | Time | Raw score | Score |
|---|---|---|---|---|
| 1 | Brionac | 1:09.93 | 1,000 | 182 |
| 2 | CyclopsDragon | 1:11.06 | 900 | 164 |
| 3 | [deleted] | 1:13.74 | 859 | 157 |
| 4 | Sidewinder Fang | 1:25.33 | 827 | 151 |
| 5 | matheus paiva | 1:27.47 | 800 | 146 |
| 6 | Samn | 1:27.62 | 777 | 142 |
| 7 | Azure Zakura | 1:27.91 | 756 | 138 |
| 8 | Zany | 1:28.60 | 736 | 134 |
| 9 | Quirked-up White Boy | 1:31.65 | 718 | 131 |
| 10 | Orion | 1:35.50 | 700 | 128 |
| 11 | Waonder | 1:36.35 | 684 | 125 |
| 12 | Simon Evo | 1:36.82 | 669 | 122 |
| 13 | posture check | 1:37.53 | 654 | 119 |
| 14 | IllKIllU | 1:37.57 | 640 | 117 |
| 15 | Nero | 1:40.38 | 626 | 114 |
| 16 | Drako | 1:42.43 | 613 | 112 |
| 17 | DefenderOfHyrule | 1:43.68 | 600 | 109 |
| 18 | Sayukki | 1:44.53 | 588 | 107 |
| 19 | Tribow | 1:44.89 | 576 | 105 |
| 20 | Sev | 1:45.37 | 565 | 103 |
| 21 | Rombommind | 1:48.43 | 553 | 101 |
| 22 | Cygnus | 1:48.82 | 542 | 99 |
| 23 | Bridge | 1:50.06 | 531 | 97 |
| 24 | [Lard] Kriltch | 1:50.28 | 521 | 95 |
| 25 | Epsilon_Knight | 1:50.62 | 511 | 93 |
| 26 | rbrules | 1:50.90 | 500 | 91 |
| 27 | Ruslan145 | 1:51.07 | 491 | 90 |
| 28 | SpongieBobu | 1:51.49 | 481 | 88 |
| 29 | slug ʕ●.●ʔ | 1:52.40 | 471 | 86 |
| 30 | Tem | 1:52.67 | 462 | 84 |
| 31 | Ebeta2 | 1:55.65 | 453 | 83 |
| 32 | FRX | 1:55.67 | 444 | 81 |
| 33 | GrosPigeon | 1:56.01 | 435 | 79 |
| 34 | G9 | 1:56.35 | 426 | 78 |
| 35 | Predatory_Balloon | 1:57.83 | 417 | 76 |
| 36 | Numerousluke | 2:01.09 | 409 | 75 |
| 37 | XCVIBUR | 2:01.32 | 400 | 73 |
| 38 | Skafloodle | 2:03.42 | 392 | 71 |
| 39 | i0nTempest | 2:03.82 | 384 | 70 |
| 40 | Kerusos | 2:04.12 | 376 | 69 |
| 41 | Aureliayk | 2:04.58 | 368 | 67 |
| 42 | jason | 2:04.96 | 360 | 66 |
| 43 | Zoey Blackwood | 2:05.34 | 352 | 64 |
| 44 | MAT D.R.⎛⎝≥⏝⏝≤⎠⎞ | 2:05.78 | 345 | 63 |
| 45 | TEZZA | 2:06.61 | 337 | 61 |
| 46 | fischpferd | 2:06.63 | 330 | 60 |
| 47 | Cyero | 2:09.30 | 322 | 59 |
| 48 | Backgrounds' | 2:11.04 | 315 | 57 |
| 49 | RaiderZulu | 2:13.96 | 308 | 56 |
| 50 | Strafik | 2:15.12 | 300 | 55 |
| 51 | XxSupremeCountoFedoraTipper420xX | 2:15.49 | 293 | 53 |
| 52 | Stracker | 2:16.56 | 286 | 52 |
| 53 | Nitrium | 2:17.73 | 279 | 51 |
| 54 | pox | 2:18.56 | 272 | 50 |
| 55 | PinesOfChaos | 2:18.58 | 266 | 49 |
| 56 | cleanshirt | 2:18.72 | 259 | 47 |
| 57 | menkaru | 2:22.89 | 252 | 46 |
| 58 | Fushiggy | 2:28.57 | 246 | 45 |
| 59 | Hirochi | 2:29.30 | 239 | 44 |
| 60 | greenscorpeon3 | 2:29.90 | 232 | 42 |
| 61 | Drakir | 2:32.93 | 226 | 41 |
| 62 | Shroom | 2:34.67 | 219 | 40 |
| 63 | Lynx | 2:34.70 | 213 | 39 |
| 64 | GrubHub | 2:35.50 | 207 | 38 |
| 65 | Deadlift | 2:38.16 | 200 | 36 |
| 66 | cerberus❤ | 2:39.26 | 194 | 35 |
| 67 | 2:40.05 | 188 | 34 | |
| 68 | Frozen Vegetables | 2:41.48 | 182 | 33 |
| 69 | Шоколадка:) | 2:42.60 | 176 | 32 |
| 70 | GaiaGaiyus | 2:43.03 | 170 | 31 |
| 71 | LeZalain | 2:43.17 | 164 | 30 |
| 72 | Arc Dark | 2:45.65 | 158 | 29 |
| 73 | Horus1939 | 2:46.68 | 152 | 28 |
| 74 | Moon | 2:47.23 | 146 | 27 |
| 75 | tveh | 2:48.49 | 140 | 26 |
| 76 | ErzoopaRTR | 2:50.19 | 134 | 24 |
| 77 | Drizza | 2:51.26 | 129 | 24 |
| 78 | Jezo | 2:54.79 | 123 | 22 |
| 79 | Kashuzu | 2:56.76 | 117 | 21 |
| 80 | CeruleanAzura | 2:58.72 | 112 | 20 |
| 81 | NIRV007 | 3:00.55 | 106 | 19 |
| 82 | Jcav | 3:09.70 | 100 | 18 |
| 83 | Zelo101 | 3:12.80 | 95 | 17 |
| 84 | Æurora | 3:21.64 | 89 | 16 |
| 85 | DROCHEPOLK | 3:25.40 | 84 | 15 |
| 86 | John Madden | 3:27.67 | 79 | 14 |
| 87 | XiQu3sT | 3:29.91 | 73 | 13 |
| 88 | Gidan | 3:30.59 | 68 | 12 |
| 89 | CuddleStrike | 3:36.23 | 62 | 11 |
| 90 | rilelyscastle | 3:42.04 | 57 | 10 |
| 91 | Clown Dude | 3:55.43 | 52 | 9 |
| 92 | D2C | Chrisc02 | 3:58.95 | 47 | 9 |
| 93 | Lii | 4:13.86 | 41 | 7 |
| 94 | Wolf | 4:16.55 | 36 | 7 |
| 95 | Edragon13 | 4:22.10 | 31 | 6 |
| 96 | symmael | 4:29.63 | 26 | 5 |
| 97 | GORIMAKOKO | 4:41.15 | 21 | 4 |
| 98 | Dragonborn | 4:45.15 | 16 | 3 |
| 99 | WitchOnFire | 5:01.37 | 11 | 2 |
| 100 | Sappytron | 5:03.27 | 6 | 1 |
| 101 | Siwy | 5:25.76 | 0 | 0 |
| 102 | Savage | 5:36.37 | 0 | 0 |
| 103 | Monocly Man | 6:14.63 | 0 | 0 |
| 104 | LeoZ | 10:16.14 | 0 | 0 |
HoldGrip